Nrp Polar — CTEJ — position and weather

sailwx.info

Track history (hours):
 
Tides and Currents Weather Stations Pressure Air Temp Water Temp Dewpoint Dewpoint Depression Visibility Wind Speed Wind Dir Waves Ship Positions

Nrp Polar

Last reported at 2016-Jul-25 21:33 UTC. Time now 2016-Jul-25 21:59 UTC.
Position N 38°23' W 009°21'.

Length 17 m; draft 25.5 m.

Type: Sailing vessel. MMSI: 263142000.

Date/timePositionNaut miles runAvg speedWind from/ knotsBaromVisibWave heightAir tempDewpointWater temp
2016-Jul-25 21:33N 38°23' W 009°21'5 5.2
2016-Jul-25 20:34N 38°27' W 009°25'5 5.4
2016-Jul-25 19:34N 38°33' W 009°26'5 4.9
2016-Jul-25 18:33N 38°37' W 009°26'2 2.4
2016-Jul-25 17:34N 38°40' W 009°26'2 1.6
2016-Jul-25 16:33N 38°40' W 009°25'5 4.7
2016-Jul-25 15:34N 38°40' W 009°19'  
2016-Jul-19 09:33N 38°40' W 009°09'0 0.0
2016-Jul-18 14:33N 38°40' W 009°09'  
Track history (hours):
 
Tides and Currents Weather Stations Pressure Air Temp Water Temp Dewpoint Dewpoint Depression Visibility Wind Speed Wind Dir Waves Ship Positions

Nrp Polar

Last reported at 2016-Jul-25 21:33 UTC. Time now 2016-Jul-25 21:59 UTC.
Position N 38°23' W 009°21'.

Length 17 m; draft 25.5 m.

Type: Sailing vessel. MMSI: 263142000.

Date/timePositionNaut miles runAvg speedWind from/ knotsBaromVisibWave heightAir tempDewpointWater temp
2016-Jul-25 21:33N 38°23' W 009°21'5 5.2
2016-Jul-25 20:34N 38°27' W 009°25'5 5.4
2016-Jul-25 19:34N 38°33' W 009°26'5 4.9
2016-Jul-25 18:33N 38°37' W 009°26'2 2.4
2016-Jul-25 17:34N 38°40' W 009°26'2 1.6
2016-Jul-25 16:33N 38°40' W 009°25'5 4.7
2016-Jul-25 15:34N 38°40' W 009°19'  
2016-Jul-19 09:33N 38°40' W 009°09'0 0.0
2016-Jul-18 14:33N 38°40' W 009°09'  

Dump ship's entire track history